Time;durP1;ratioP1;P1;durP2;ratioP2;P2;SDS_P1;SDS_P2;PMS_P1;PMS_P2;Temp;Humidity;BMP_temperature;BMP_pressure;BME280_temperature;BME280_humidity;BME280_pressure;Samples;Min_cycle;Max_cycle;Signal;HPM_P1;HPM_P2
2023/04/09 00:04:17;;;;;;;19.08;10.77;;;21.30;62.00;;;;;;10537653;28;20121;-22
2023/04/09 00:09:19;;;;;;;20.67;10.63;;;21.30;62.30;;;;;;10537599;28;20056;-24
2023/04/09 00:14:21;;;;;;;;;;;21.20;62.30;;;;;;10534703;28;20075;-22
2023/04/09 00:19:24;;;;;;;13.80;9.20;;;21.20;62.40;;;;;;10532128;28;20006;-23
2023/04/09 00:24:26;;;;;;;17.70;9.93;;;21.20;62.40;;;;;;10534328;28;20093;-22
2023/04/09 00:29:28;;;;;;;16.75;9.80;;;21.10;62.40;;;;;;10534807;28;20463;-23
2023/04/09 00:34:31;;;;;;;15.25;9.40;;;21.10;62.50;;;;;;10532611;28;20078;-22
2023/04/09 00:39:33;;;;;;;17.08;9.23;;;21.10;62.50;;;;;;10530634;28;20167;-23
2023/04/09 00:44:35;;;;;;;15.63;9.73;;;21.00;62.50;;;;;;10530771;28;20138;-22
2023/04/09 00:49:38;;;;;;;17.42;9.90;;;20.90;62.40;;;;;;10536267;28;20545;-23
2023/04/09 00:54:40;;;;;;;15.43;9.52;;;21.00;62.60;;;;;;10527127;28;20138;-24
2023/04/09 00:59:42;;;;;;;16.98;9.88;;;21.00;62.60;;;;;;10530395;28;20142;-23
2023/04/09 01:04:45;;;;;;;17.35;9.15;;;20.90;62.60;;;;;;10527913;28;20087;-21
2023/04/09 01:09:54;;;;;;;15.90;9.25;;;20.90;62.60;;;;;;10536519;28;20138;-23
2023/04/09 01:15:05;;;;;;;16.80;9.52;;;20.90;62.60;;;;;;10532588;28;20072;-23
2023/04/09 01:20:11;;;;;;;17.33;8.88;;;20.90;62.70;;;;;;10532040;28;20048;-28
2023/04/09 01:25:27;;;;;;;13.52;8.48;;;20.80;62.50;;;;;;10533961;28;20102;-24
2023/04/09 01:30:31;;;;;;;12.48;7.40;;;20.80;62.70;;;;;;10533440;28;20048;-23
2023/04/09 01:35:33;;;;;;;13.30;8.15;;;20.80;62.70;;;;;;10525502;28;20051;-22
2023/04/09 01:40:35;;;;;;;11.82;8.02;;;20.70;62.70;;;;;;10536497;28;20133;-23
2023/04/09 01:45:39;;;;;;;12.75;8.02;;;20.70;63.00;;;;;;10523021;28;20072;-21
2023/04/09 01:50:42;;;;;;;11.10;6.93;;;20.70;62.90;;;;;;10530719;28;20154;-22
2023/04/09 01:55:43;;;;;;;;;;;20.60;63.00;;;;;;10537969;28;20040;-23
2023/04/09 02:00:48;;;;;;;11.07;7.22;;;20.60;63.10;;;;;;10523731;28;20279;-23
2023/04/09 02:05:56;;;;;;;11.18;6.95;;;20.60;63.10;;;;;;10527968;28;20556;-23
2023/04/09 02:11:00;;;;;;;11.90;7.40;;;20.60;63.00;;;;;;10525094;28;20531;-23
2023/04/09 02:16:04;;;;;;;11.52;6.40;;;20.50;63.10;;;;;;10552412;28;20101;-23
2023/04/09 02:21:07;;;;;;;12.15;6.68;;;20.50;63.00;;;;;;10532119;28;20876;-23
2023/04/09 02:26:09;;;;;;;12.27;6.88;;;20.50;63.10;;;;;;10537759;28;20100;-23
2023/04/09 02:31:12;;;;;;;11.30;6.90;;;20.50;62.90;;;;;;10535660;28;20109;-23
2023/04/09 02:36:14;;;;;;;8.63;6.20;;;20.50;63.00;;;;;;10532000;28;20040;-23
2023/04/09 02:41:16;;;;;;;8.77;5.85;;;20.50;63.10;;;;;;10532563;28;20480;-22
2023/04/09 02:46:19;;;;;;;9.30;6.25;;;20.40;63.00;;;;;;10533513;28;20413;-23
2023/04/09 02:51:21;;;;;;;10.57;6.50;;;20.40;63.10;;;;;;10530064;28;20506;-23
2023/04/09 02:56:23;;;;;;;7.90;5.80;;;20.30;63.00;;;;;;10531806;28;20131;-22
2023/04/09 03:01:26;;;;;;;10.35;6.55;;;20.40;63.10;;;;;;10527816;28;20044;-22
2023/04/09 03:06:28;;;;;;;7.85;5.50;;;20.30;63.00;;;;;;10528979;28;20043;-22
2023/04/09 03:11:30;;;;;;;10.13;6.65;;;20.30;63.10;;;;;;10540564;28;20796;-23
2023/04/09 03:16:33;;;;;;;8.75;5.32;;;20.30;63.00;;;;;;10529169;28;20135;-23
2023/04/09 03:21:35;;;;;;;8.48;5.85;;;20.30;63.20;;;;;;10527950;28;20139;-22
2023/04/09 03:26:37;;;;;;;9.13;6.07;;;20.20;63.00;;;;;;10534616;28;20878;-22
2023/04/09 03:31:40;;;;;;;9.75;6.05;;;20.20;63.10;;;;;;10527922;28;20051;-23
2023/04/09 03:36:42;;;;;;;9.23;5.90;;;20.20;63.20;;;;;;10534296;28;20118;-23
2023/04/09 03:41:44;;;;;;;7.90;5.43;;;20.20;63.20;;;;;;10535397;28;20144;-22
2023/04/09 03:46:47;;;;;;;7.38;5.28;;;20.20;63.20;;;;;;10529473;28;20071;-22
2023/04/09 03:51:49;;;;;;;7.85;5.47;;;20.10;63.30;;;;;;10536986;28;20044;-23
2023/04/09 03:56:51;;;;;;;5.65;4.25;;;20.10;63.20;;;;;;10539199;28;20445;-23
2023/04/09 04:01:54;;;;;;;7.20;4.28;;;20.10;63.30;;;;;;10540077;28;20154;-22
2023/04/09 04:06:56;;;;;;;6.55;4.82;;;20.10;63.30;;;;;;10535848;28;20131;-23
2023/04/09 04:11:57;;;;;;;7.25;5.13;;;20.00;63.20;;;;;;10537546;28;20044;-23
2023/04/09 04:17:01;;;;;;;7.47;4.82;;;20.00;63.20;;;;;;10538154;28;20144;-24
2023/04/09 04:22:03;;;;;;;7.35;5.22;;;20.00;63.20;;;;;;10544207;28;20142;-23
2023/04/09 04:27:05;;;;;;;5.93;4.65;;;20.00;63.20;;;;;;10544873;28;21118;-21
2023/04/09 04:32:08;;;;;;;6.88;5.03;;;20.00;63.30;;;;;;10527405;28;20051;-23
2023/04/09 04:37:13;;;;;;;5.70;4.53;;;19.90;63.10;;;;;;10537166;28;20130;-22
2023/04/09 04:42:15;;;;;;;6.60;4.38;;;19.90;63.10;;;;;;10536416;28;20058;-23
2023/04/09 04:47:19;;;;;;;5.70;4.43;;;19.90;63.10;;;;;;10538787;28;20101;-22
2023/04/09 04:52:21;;;;;;;6.50;4.95;;;19.90;63.20;;;;;;10533025;28;20052;-23
2023/04/09 04:57:23;;;;;;;5.63;4.38;;;19.80;63.10;;;;;;10536394;28;20048;-23
2023/04/09 05:02:26;;;;;;;6.47;4.22;;;19.90;63.20;;;;;;10537339;28;20050;-22
2023/04/09 05:07:27;;;;;;;5.25;4.07;;;19.90;63.10;;;;;;10535910;28;20044;-23
2023/04/09 05:12:31;;;;;;;5.70;3.88;;;19.90;62.90;;;;;;10528277;28;20135;-23
2023/04/09 05:17:34;;;;;;;5.68;3.85;;;19.90;62.20;;;;;;10543570;28;20048;-22
2023/04/09 05:22:36;;;;;;;5.82;4.40;;;19.90;61.50;;;;;;10541228;28;20087;-22
2023/04/09 05:27:38;;;;;;;5.50;3.65;;;19.90;61.70;;;;;;10532703;28;20049;-22
2023/04/09 05:32:41;;;;;;;5.55;3.63;;;19.90;61.90;;;;;;10535097;28;20135;-22
2023/04/09 05:37:43;;;;;;;5.65;3.90;;;19.90;62.10;;;;;;10527937;28;20072;-22
2023/04/09 05:42:45;;;;;;;6.90;3.63;;;19.90;62.10;;;;;;10539818;28;20124;-21
2023/04/09 05:47:48;;;;;;;4.90;3.60;;;19.90;62.40;;;;;;10537916;28;20075;-22
2023/04/09 05:52:50;;;;;;;3.67;3.25;;;20.00;62.40;;;;;;10531987;28;20051;-24
2023/04/09 05:57:52;;;;;;;3.67;3.03;;;20.00;62.60;;;;;;10531930;28;20134;-22
2023/04/09 06:02:55;;;;;;;3.90;3.10;;;20.00;63.30;;;;;;10526156;28;20056;-22
2023/04/09 06:07:57;;;;;;;3.65;3.05;;;20.00;62.80;;;;;;10527829;28;20051;-22
2023/04/09 10:16:38;;;;;;;19.88;11.50;;;20.10;67.00;;;;;;10533735;27;1390498;-24
2023/04/09 10:21:46;;;;;;;18.95;12.15;;;20.20;65.80;;;;;;10564816;28;20039;-24
2023/04/09 10:26:49;;;;;;;25.15;12.75;;;20.00;66.50;;;;;;10561932;28;20043;-24
2023/04/09 10:32:04;;;;;;;24.42;13.63;;;20.00;66.70;;;;;;10556473;28;20040;-24
2023/04/09 10:37:08;;;;;;;23.23;13.02;;;20.00;66.80;;;;;;10563469;28;20067;-25
2023/04/09 10:42:15;;;;;;;22.25;13.05;;;20.10;66.10;;;;;;10566250;28;20056;-24
2023/04/09 10:47:32;;;;;;;22.23;12.55;;;20.20;66.20;;;;;;10565539;28;20155;-24
2023/04/09 10:52:34;;;;;;;21.63;11.80;;;20.20;66.00;;;;;;10569275;28;20113;-22
2023/04/09 11:00:38;;;;;;;20.90;11.20;;;20.30;65.10;;;;;;10553662;27;20119;-22
2023/04/09 11:05:42;;;;;;;26.50;12.90;;;20.40;65.10;;;;;;10565614;28;20120;-24
2023/04/09 11:10:46;;;;;;;27.92;13.75;;;20.60;63.70;;;;;;10559304;28;20071;-24
2023/04/09 11:15:49;;;;;;;25.42;13.45;;;20.60;63.10;;;;;;10558338;28;20126;-24
2023/04/09 11:20:55;;;;;;;29.63;15.68;;;20.60;64.20;;;;;;10550284;28;20082;-24
2023/04/09 11:25:57;;;;;;;26.10;13.93;;;20.50;64.30;;;;;;10558323;28;20121;-23
2023/04/09 11:31:00;;;;;;;21.00;12.57;;;20.60;63.90;;;;;;10557352;28;20046;-23
2023/04/09 11:36:05;;;;;;;22.25;13.73;;;20.60;64.20;;;;;;10566027;28;20105;-25
2023/04/09 11:41:11;;;;;;;23.30;13.70;;;20.70;63.90;;;;;;10558760;28;20056;-24
2023/04/09 11:46:14;;;;;;;20.35;12.38;;;20.80;63.60;;;;;;10566789;28;20052;-23
2023/04/09 11:51:17;;;;;;;21.83;13.25;;;20.80;63.50;;;;;;10544758;28;20148;-23
2023/04/09 11:56:19;;;;;;;;;;;20.90;63.80;;;;;;10544744;28;20076;-22
2023/04/09 12:01:23;;;;;;;19.73;11.57;;;21.00;63.10;;;;;;10550822;28;19924;-23
2023/04/09 12:06:26;;;;;;;19.67;12.15;;;21.30;62.10;;;;;;10556917;28;20097;-23
2023/04/09 12:11:30;;;;;;;19.58;11.80;;;21.30;61.70;;;;;;10529349;28;20067;-24
2023/04/09 12:16:35;;;;;;;21.05;11.98;;;21.40;61.30;;;;;;10533780;28;20105;-24
2023/04/09 12:21:46;;;;;;;23.05;12.23;;;21.40;60.80;;;;;;10516806;28;20051;-23
2023/04/09 12:26:49;;;;;;;19.65;12.32;;;21.70;60.20;;;;;;10522401;28;20044;-23
2023/04/09 12:31:52;;;;;;;18.23;11.25;;;21.60;60.40;;;;;;10540325;28;20122;-24
2023/04/09 12:36:54;;;;;;;19.35;12.18;;;21.70;59.80;;;;;;10533987;28;20059;-23
2023/04/09 12:41:56;;;;;;;20.25;12.13;;;21.80;59.60;;;;;;10539281;28;20132;-23
2023/04/09 12:46:59;;;;;;;19.90;11.40;;;21.90;59.10;;;;;;10527045;28;20465;-24
2023/04/09 12:52:01;;;;;;;16.90;11.07;;;21.80;59.00;;;;;;10517944;28;20501;-24
2023/04/09 12:57:03;;;;;;;19.90;11.65;;;22.00;58.60;;;;;;10519473;28;20059;-26
2023/04/09 13:02:06;;;;;;;19.35;12.02;;;21.80;60.80;;;;;;10527751;28;20045;-24
2023/04/09 13:07:09;;;;;;;20.05;12.75;;;21.80;61.50;;;;;;10528254;28;20523;-23
2023/04/09 13:12:11;;;;;;;23.98;12.80;;;21.60;62.80;;;;;;10514506;28;20395;-23
2023/04/09 13:17:14;;;;;;;24.95;12.85;;;21.70;63.60;;;;;;10531225;28;20153;-23
2023/04/09 13:22:16;;;;;;;23.27;12.45;;;21.70;63.40;;;;;;10531687;28;20068;-24
2023/04/09 13:27:18;;;;;;;22.35;12.60;;;21.70;63.60;;;;;;10532761;28;20071;-24
2023/04/09 13:32:23;;;;;;;21.15;12.10;;;21.70;62.80;;;;;;10530287;28;20083;-23
2023/04/09 13:37:25;;;;;;;20.15;10.77;;;21.80;63.00;;;;;;10525596;28;20141;-23
2023/04/09 13:42:26;;;;;;;19.30;11.43;;;22.00;61.50;;;;;;10520826;28;20040;-24
2023/04/09 13:47:30;;;;;;;19.45;11.15;;;22.00;61.30;;;;;;10519617;28;20535;-24
2023/04/09 13:52:32;;;;;;;19.13;11.60;;;22.00;62.50;;;;;;10511923;28;20056;-24
2023/04/09 13:57:33;;;;;;;18.88;11.27;;;22.00;62.00;;;;;;10522105;28;20091;-24
2023/04/09 14:02:37;;;;;;;24.33;14.45;;;22.10;62.10;;;;;;10519116;28;20079;-26
2023/04/09 14:07:38;;;;;;;21.02;11.77;;;22.00;59.70;;;;;;10522080;28;20047;-24
2023/04/09 14:12:40;;;;;;;21.52;11.93;;;22.20;60.50;;;;;;10518902;28;20127;-26
2023/04/09 14:17:44;;;;;;;;;;;22.40;60.90;;;;;;10531734;28;20043;-24
2023/04/09 14:22:48;;;;;;;13.18;9.60;;;22.40;61.40;;;;;;10510794;28;20364;-25
2023/04/09 14:27:50;;;;;;;14.57;10.82;;;22.40;61.50;;;;;;10519684;28;20087;-24
2023/04/09 14:32:54;;;;;;;15.32;10.10;;;22.40;62.20;;;;;;10514696;28;20052;-25
2023/04/09 14:37:56;;;;;;;15.80;10.05;;;22.50;61.90;;;;;;10527637;28;20036;-25
2023/04/09 14:42:59;;;;;;;11.95;8.90;;;22.50;61.60;;;;;;10530573;28;20048;-25
2023/04/09 14:48:02;;;;;;;16.88;10.13;;;22.60;61.70;;;;;;10519747;28;20035;-24
2023/04/09 14:53:04;;;;;;;11.38;8.95;;;22.70;62.30;;;;;;10519654;28;20075;-24
2023/04/09 14:58:07;;;;;;;;;;;22.80;63.00;;;;;;10518148;28;20529;-24
2023/04/09 15:03:10;;;;;;;15.70;8.63;;;22.80;70.80;;;;;;10509234;28;20047;-25
2023/04/09 15:08:13;;;;;;;12.98;8.00;;;22.90;62.50;;;;;;10525690;28;20131;-24
2023/04/09 15:13:14;;;;;;;10.95;7.60;;;23.00;60.50;;;;;;10521232;28;20725;-24
2023/04/09 15:18:18;;;;;;;10.25;7.90;;;23.00;61.80;;;;;;10534145;28;20051;-25
2023/04/09 15:23:20;;;;;;;9.88;7.63;;;23.00;63.60;;;;;;10503050;28;20129;-24
2023/04/09 15:28:22;;;;;;;12.63;8.55;;;23.00;63.60;;;;;;10523247;28;20059;-24
2023/04/09 15:33:26;;;;;;;13.23;8.23;;;23.00;63.90;;;;;;10542519;28;20064;-24
2023/04/09 15:38:28;;;;;;;11.35;8.15;;;23.00;63.00;;;;;;10527739;28;20043;-24
2023/04/09 15:43:30;;;;;;;9.95;6.85;;;23.10;64.00;;;;;;10522146;28;20127;-25
2023/04/09 15:48:33;;;;;;;;;;;23.10;63.30;;;;;;10534783;28;20048;-24
2023/04/09 15:53:35;;;;;;;11.68;7.53;;;23.10;62.80;;;;;;10526911;28;20015;-22
2023/04/09 15:58:37;;;;;;;9.35;6.88;;;23.10;64.00;;;;;;10533348;28;20160;-24
2023/04/09 16:03:40;;;;;;;12.35;7.53;;;23.10;63.50;;;;;;10533827;28;20132;-23
2023/04/09 16:08:42;;;;;;;9.10;6.75;;;23.20;62.70;;;;;;10532984;28;20060;-22
2023/04/09 16:13:44;;;;;;;14.25;9.93;;;23.20;63.10;;;;;;10552191;28;20051;-24
2023/04/09 16:18:48;;;;;;;9.93;7.75;;;23.30;64.50;;;;;;10518494;28;20097;-23
2023/04/09 16:23:50;;;;;;;10.13;7.65;;;23.20;61.60;;;;;;10518370;28;20441;-23
2023/04/09 16:28:52;;;;;;;12.43;8.90;;;23.40;63.30;;;;;;10514161;28;20052;-23
2023/04/09 16:33:55;;;;;;;14.40;9.65;;;23.50;62.20;;;;;;10532583;28;20071;-28
2023/04/09 16:38:57;;;;;;;15.18;9.43;;;23.50;61.90;;;;;;10517356;28;20060;-25
2023/04/09 16:43:59;;;;;;;15.77;9.75;;;23.70;62.20;;;;;;10513701;28;20058;-24
2023/04/09 16:49:02;;;;;;;14.30;9.73;;;23.70;58.30;;;;;;10523201;28;20480;-25
2023/04/09 16:54:04;;;;;;;14.63;9.88;;;23.70;59.90;;;;;;10526925;28;20051;-24
2023/04/09 16:59:06;;;;;;;17.02;10.95;;;23.70;60.80;;;;;;10521295;28;20117;-25
2023/04/09 17:04:09;;;;;;;15.55;10.32;;;23.90;60.60;;;;;;10524047;28;20086;-25
2023/04/09 17:09:11;;;;;;;17.23;10.57;;;24.10;61.90;;;;;;10524691;28;20071;-25
2023/04/09 17:14:13;;;;;;;18.83;12.10;;;24.10;63.00;;;;;;10528031;28;20504;-24
2023/04/09 17:19:16;;;;;;;17.92;11.25;;;24.10;62.40;;;;;;10523785;28;20040;-24
2023/04/09 17:24:18;;;;;;;39.90;25.33;;;24.10;61.30;;;;;;10530608;28;20085;-23
2023/04/09 17:29:20;;;;;;;38.90;23.10;;;23.40;99.60;;;;;;10531723;28;20044;-24
2023/04/09 17:34:24;;;;;;;27.65;14.15;;;23.20;99.90;;;;;;10516863;28;20403;-25
2023/04/09 17:39:28;;;;;;;20.00;13.45;;;23.90;64.50;;;;;;10520946;28;20059;-24
2023/04/09 17:44:33;;;;;;;34.58;20.38;;;24.00;60.30;;;;;;10531029;28;20392;-25
2023/04/09 17:49:38;;;;;;;39.90;24.70;;;23.50;60.70;;;;;;10516989;28;20055;-24
2023/04/09 17:54:40;;;;;;;23.30;13.35;;;22.70;79.90;;;;;;10542615;28;20128;-23
2023/04/09 17:59:42;;;;;;;30.50;17.95;;;23.40;82.40;;;;;;10520310;28;20105;-29
2023/04/09 18:04:45;;;;;;;26.70;17.38;;;21.30;92.10;;;;;;10515753;28;20098;-25
2023/04/09 18:09:47;;;;;;;37.50;22.35;;;21.50;95.40;;;;;;10533104;28;20056;-25
2023/04/09 18:14:49;;;;;;;21.65;13.93;;;20.70;97.00;;;;;;10521262;28;20967;-29
2023/04/09 18:19:53;;;;;;;14.70;10.40;;;22.60;90.20;;;;;;10517517;28;20118;-26
2023/04/09 18:24:55;;;;;;;15.13;10.77;;;23.50;70.80;;;;;;10515639;28;20451;-24
2023/04/09 18:29:58;;;;;;;11.73;10.02;;;23.60;64.50;;;;;;10530663;28;20349;-24
2023/04/09 18:35:01;;;;;;;19.00;11.63;;;23.70;65.80;;;;;;10522942;28;20044;-26
2023/04/09 18:40:03;;;;;;;17.15;12.80;;;23.70;65.60;;;;;;10528845;28;20075;-25
2023/04/09 18:45:05;;;;;;;;;;;23.70;65.00;;;;;;10526498;28;20044;-27
2023/04/09 18:50:09;;;;;;;31.05;20.25;;;23.60;64.00;;;;;;10523063;28;20059;-25
2023/04/09 18:55:12;;;;;;;36.25;24.60;;;23.50;63.80;;;;;;10515185;28;20062;-26
2023/04/09 19:00:15;;;;;;;46.25;32.15;;;23.50;63.60;;;;;;10522518;28;20064;-24
2023/04/09 19:05:18;;;;;;;61.03;38.58;;;23.40;63.80;;;;;;10515387;28;20070;-25
2023/04/09 19:10:20;;;;;;;84.88;57.10;;;23.40;63.50;;;;;;10531492;28;20696;-26
2023/04/09 19:15:24;;;;;;;91.30;62.63;;;23.30;63.30;;;;;;10516957;28;20040;-25
2023/04/09 19:20:28;;;;;;;100.30;68.57;;;23.30;62.60;;;;;;10526175;28;20561;-24
2023/04/09 19:25:30;;;;;;;114.00;85.25;;;23.30;62.70;;;;;;10546020;28;20121;-25
2023/04/09 19:30:31;;;;;;;;;;;23.20;63.20;;;;;;10546499;28;20052;-24
2023/04/09 19:35:39;;;;;;;39.53;27.30;;;23.30;61.10;;;;;;10535172;28;19955;-24
2023/04/09 19:40:41;;;;;;;31.98;20.77;;;23.30;60.60;;;;;;10537440;28;20048;-25
2023/04/09 19:45:43;;;;;;;;;;;23.20;60.30;;;;;;10549229;28;20123;-25
2023/04/09 19:50:48;;;;;;;25.08;16.17;;;23.20;60.20;;;;;;10499531;28;20011;-25
2023/04/09 19:55:51;;;;;;;21.77;15.55;;;23.20;60.80;;;;;;10527393;28;20121;-25
2023/04/09 20:00:53;;;;;;;24.45;13.50;;;23.10;60.20;;;;;;10522200;28;20056;-25
2023/04/09 20:05:57;;;;;;;19.98;13.27;;;23.20;60.30;;;;;;10516318;28;20094;-24
2023/04/09 20:10:58;;;;;;;17.48;11.88;;;23.10;60.60;;;;;;10530063;28;20052;-25
2023/04/09 20:16:00;;;;;;;15.45;10.70;;;23.10;60.70;;;;;;10514263;28;20412;-25
2023/04/09 20:21:04;;;;;;;;;;;23.00;60.80;;;;;;10534313;28;20072;-26
2023/04/09 20:26:08;;;;;;;17.95;11.32;;;23.00;60.70;;;;;;10529903;28;20335;-25
2023/04/09 20:31:10;;;;;;;15.68;10.57;;;22.90;60.90;;;;;;10531740;28;20447;-27
2023/04/09 20:36:16;;;;;;;;;;;22.90;61.10;;;;;;10532703;28;20067;-26
2023/04/09 20:41:18;;;;;;;15.60;9.73;;;22.90;61.00;;;;;;10523800;28;19924;-23
2023/04/09 20:46:21;;;;;;;12.82;9.20;;;22.90;61.20;;;;;;10527007;28;20119;-27
2023/04/09 20:51:24;;;;;;;15.45;10.95;;;22.80;61.50;;;;;;10526332;28;20071;-24
2023/04/09 20:56:26;;;;;;;20.83;14.13;;;22.80;62.00;;;;;;10509337;28;20134;-24
2023/04/09 21:01:28;;;;;;;;;;;22.60;62.20;;;;;;10533051;28;20054;-25
2023/04/09 21:06:31;;;;;;;17.40;12.47;;;22.70;62.00;;;;;;10535299;28;20014;-26
2023/04/09 21:11:33;;;;;;;15.65;10.65;;;22.60;62.00;;;;;;10517690;28;20071;-25
2023/04/09 21:16:35;;;;;;;16.48;12.00;;;22.60;62.00;;;;;;10517015;28;20456;-26
2023/04/09 21:21:38;;;;;;;23.42;15.80;;;22.40;62.90;;;;;;10531502;28;20045;-26
2023/04/09 21:26:40;;;;;;;16.20;12.20;;;22.40;62.80;;;;;;10523131;28;20140;-27
2023/04/09 21:31:42;;;;;;;14.70;11.27;;;22.40;62.60;;;;;;10532535;28;20079;-25
2023/04/09 21:36:45;;;;;;;14.68;10.15;;;22.40;62.50;;;;;;10529863;28;20075;-25
2023/04/09 21:41:47;;;;;;;15.07;10.90;;;22.30;62.90;;;;;;10532950;28;20057;-24
2023/04/09 21:46:49;;;;;;;14.63;9.93;;;22.30;62.90;;;;;;10501022;28;20424;-25
2023/04/09 21:51:54;;;;;;;17.17;10.18;;;22.30;62.80;;;;;;10524011;28;20048;-26
2023/04/09 21:56:57;;;;;;;14.38;10.27;;;22.20;63.00;;;;;;10529491;28;20067;-25
2023/04/09 22:01:59;;;;;;;15.48;10.10;;;22.10;63.10;;;;;;10531435;28;20146;-25
2023/04/09 22:07:02;;;;;;;16.98;11.32;;;22.10;63.10;;;;;;10532111;28;20049;-30
2023/04/09 22:12:04;;;;;;;17.75;11.43;;;22.10;63.20;;;;;;10526916;28;20048;-24
2023/04/09 22:17:07;;;;;;;16.55;11.65;;;22.10;63.20;;;;;;10512547;28;20048;-25
2023/04/09 22:22:13;;;;;;;17.17;12.70;;;22.00;63.50;;;;;;10522192;28;20079;-24
2023/04/09 22:27:15;;;;;;;22.88;16.60;;;21.80;63.90;;;;;;10519268;28;20059;-24
2023/04/09 22:32:17;;;;;;;26.85;20.40;;;21.80;64.20;;;;;;10535368;28;20176;-26
2023/04/09 22:37:20;;;;;;;28.88;20.30;;;21.70;64.60;;;;;;10521690;28;20040;-28
2023/04/09 22:42:24;;;;;;;33.33;23.55;;;21.70;64.60;;;;;;10537118;28;20530;-24
2023/04/09 22:47:25;;;;;;;34.15;26.45;;;21.60;64.30;;;;;;10527166;28;20127;-24
2023/04/09 22:52:29;;;;;;;33.22;26.00;;;21.60;64.40;;;;;;10532363;28;20039;-25
2023/04/09 22:57:31;;;;;;;34.83;27.00;;;21.50;64.80;;;;;;10520373;28;20044;-25
2023/04/09 23:02:33;;;;;;;33.45;24.17;;;21.50;64.80;;;;;;10525604;28;20147;-25
2023/04/09 23:07:36;;;;;;;37.63;27.17;;;21.40;64.90;;;;;;10525044;28;20131;-25
2023/04/09 23:12:38;;;;;;;34.30;26.00;;;21.40;65.20;;;;;;10516772;28;20675;-23
2023/04/09 23:17:40;;;;;;;33.70;27.05;;;21.30;65.10;;;;;;10535931;28;20461;-25
2023/04/09 23:22:46;;;;;;;34.40;26.60;;;21.40;65.50;;;;;;10519766;28;20078;-25
2023/04/09 23:27:48;;;;;;;35.28;26.95;;;21.30;65.10;;;;;;10526256;28;20087;-25
2023/04/09 23:32:51;;;;;;;33.42;25.20;;;21.20;65.50;;;;;;10525387;28;20048;-24
2023/04/09 23:37:54;;;;;;;34.33;24.42;;;21.30;65.30;;;;;;10523372;28;20058;-25
2023/04/09 23:42:56;;;;;;;28.83;21.50;;;21.20;65.20;;;;;;10532831;28;20915;-24
2023/04/09 23:47:58;;;;;;;26.77;21.48;;;21.20;65.50;;;;;;10521014;28;20056;-24
2023/04/09 23:53:02;;;;;;;30.65;22.55;;;21.20;65.40;;;;;;10512542;28;20036;-24
2023/04/09 23:58:04;;;;;;;30.15;22.58;;;21.20;65.50;;;;;;10504186;28;20060;-24
